createdAt,value
2018-06-18T00:00:52.612Z,5.60
2018-06-18T00:02:46.049Z,5.70
2018-06-18T00:03:46.064Z,6.10
2018-06-18T00:05:39.498Z,3.80
2018-06-18T00:06:39.514Z,5.00
2018-06-18T00:08:32.949Z,4.50
2018-06-18T00:09:32.969Z,4.40
2018-06-18T00:11:26.401Z,4.30
2018-06-18T00:12:26.414Z,3.30
2018-06-18T00:14:19.853Z,7.10
2018-06-18T00:15:19.868Z,4.50
2018-06-18T00:17:13.373Z,4.70
2018-06-18T00:18:13.395Z,5.10
2018-06-18T00:20:06.824Z,4.80
2018-06-18T00:21:06.838Z,4.10
2018-06-18T00:23:00.272Z,6.90
2018-06-18T00:24:00.291Z,6.00
2018-06-18T00:25:53.724Z,4.60
2018-06-18T00:26:53.738Z,4.80
2018-06-18T00:28:47.192Z,4.60
2018-06-18T00:29:47.195Z,3.90
2018-06-18T00:31:40.622Z,7.80
2018-06-18T00:32:40.643Z,6.70
2018-06-18T00:34:34.073Z,8.40
2018-06-18T00:35:34.094Z,7.80
2018-06-18T00:37:27.518Z,6.60
2018-06-18T00:38:27.539Z,8.20
2018-06-18T00:40:20.969Z,6.20
2018-06-18T00:41:20.986Z,5.50
2018-06-18T00:43:14.422Z,6.40
2018-06-18T00:44:14.441Z,6.10
2018-06-18T00:46:07.876Z,4.80
2018-06-18T00:47:07.887Z,5.40
2018-06-18T00:49:01.321Z,6.00
2018-06-18T00:50:01.343Z,7.50
2018-06-18T00:51:54.777Z,6.50
2018-06-18T00:52:54.792Z,5.00
2018-06-18T00:54:48.245Z,6.50
2018-06-18T00:55:48.245Z,10.20
2018-06-18T00:57:41.692Z,7.00
2018-06-18T00:58:41.713Z,6.70
2018-06-18T01:00:35.146Z,5.40
2018-06-18T01:01:35.160Z,5.60
2018-06-18T01:03:28.606Z,6.50
2018-06-18T01:04:28.620Z,5.00
2018-06-18T01:06:22.061Z,7.80
2018-06-18T01:07:22.079Z,7.60
2018-06-18T01:09:15.511Z,7.10
2018-06-18T01:10:15.525Z,5.00
2018-06-18T01:12:08.965Z,4.00
2018-06-18T01:13:08.980Z,5.90
2018-06-18T01:15:02.413Z,8.20
2018-06-18T01:16:02.424Z,6.10
2018-06-18T01:17:55.853Z,5.00
2018-06-18T01:18:55.875Z,6.80
2018-06-18T01:20:49.303Z,6.40
2018-06-18T01:21:49.323Z,5.10
2018-06-18T01:23:42.757Z,7.80
2018-06-18T01:24:42.771Z,6.10
2018-06-18T01:26:36.218Z,8.10
2018-06-18T01:27:36.223Z,5.70
2018-06-18T01:29:29.700Z,6.30
2018-06-18T01:30:29.715Z,6.80
2018-06-18T01:32:23.168Z,9.30
2018-06-18T01:33:23.162Z,7.30
2018-06-18T01:35:16.602Z,7.80
2018-06-18T01:36:16.617Z,5.80
2018-06-18T01:38:10.036Z,5.80
2018-06-18T01:39:10.061Z,9.20
2018-06-18T01:41:03.491Z,5.40
2018-06-18T01:42:03.508Z,5.70
2018-06-18T01:43:56.941Z,7.00
2018-06-18T01:44:56.959Z,4.60
2018-06-18T01:46:50.388Z,7.10
2018-06-18T01:47:50.413Z,7.00
2018-06-18T01:49:43.841Z,5.70
2018-06-18T01:50:43.856Z,7.20
2018-06-18T01:52:37.293Z,4.90
2018-06-18T01:53:37.308Z,6.40
2018-06-18T01:55:30.745Z,7.00
2018-06-18T01:56:30.764Z,5.40
2018-06-18T01:58:24.195Z,6.10
2018-06-18T01:59:24.210Z,6.60
2018-06-18T02:01:17.693Z,5.10
2018-06-18T02:02:17.709Z,5.60
2018-06-18T02:04:11.159Z,6.80
2018-06-18T02:05:11.160Z,4.40
2018-06-18T02:07:04.602Z,5.30
2018-06-18T02:08:04.620Z,6.10
2018-06-18T02:09:58.055Z,4.10
2018-06-18T02:10:58.075Z,5.70
2018-06-18T02:12:51.505Z,5.50
2018-06-18T02:13:51.526Z,6.00
2018-06-18T02:15:44.969Z,5.90
2018-06-18T02:16:44.980Z,5.00
2018-06-18T02:18:38.414Z,6.50
2018-06-18T02:19:38.428Z,5.90
2018-06-18T02:21:31.864Z,4.70
2018-06-18T02:22:31.882Z,5.30
2018-06-18T02:24:25.315Z,4.20
2018-06-18T02:25:25.332Z,5.20
2018-06-18T02:27:18.750Z,4.30
2018-06-18T02:28:18.772Z,5.40
2018-06-18T02:30:13.201Z,4.70
2018-06-18T02:31:13.218Z,5.80
2018-06-18T02:32:13.239Z,4.70
2018-06-18T02:33:13.260Z,5.40
2018-06-18T02:34:13.279Z,4.40
2018-06-18T02:35:13.304Z,5.80
2018-06-18T02:36:13.325Z,4.00
2018-06-18T02:37:13.345Z,7.10
2018-06-18T02:38:13.362Z,5.10
2018-06-18T02:39:13.386Z,4.80
2018-06-18T02:40:13.407Z,4.90
2018-06-18T02:41:13.447Z,5.20
2018-06-18T02:42:13.449Z,3.70
2018-06-18T02:43:13.467Z,4.50
2018-06-18T02:44:13.484Z,4.60
2018-06-18T02:45:13.508Z,3.60
2018-06-18T02:46:13.532Z,5.50
2018-06-18T02:47:13.563Z,7.30
2018-06-18T02:48:13.572Z,3.70
2018-06-18T02:49:13.595Z,4.90
2018-06-18T02:50:13.619Z,5.90
2018-06-18T02:51:13.632Z,5.20
2018-06-18T02:52:13.650Z,3.80
2018-06-18T02:53:13.677Z,4.20
2018-06-18T02:54:13.697Z,4.10
2018-06-18T02:55:13.715Z,7.30
2018-06-18T02:56:13.732Z,3.20
2018-06-18T02:57:13.755Z,2.70
2018-06-18T02:58:13.777Z,2.60
2018-06-18T02:59:13.802Z,6.20
2018-06-18T03:00:13.821Z,3.30
2018-06-18T03:01:13.842Z,4.40
2018-06-18T03:02:13.862Z,8.20
2018-06-18T03:03:13.879Z,5.40
2018-06-18T03:04:13.902Z,5.50
2018-06-18T03:05:13.919Z,6.90
2018-06-18T03:06:13.983Z,4.50
2018-06-18T03:07:14.008Z,6.80
2018-06-18T03:08:13.988Z,6.90
2018-06-18T03:09:14.003Z,11.40
2018-06-18T03:10:14.027Z,8.20
2018-06-18T03:11:14.048Z,6.80
2018-06-18T03:12:14.070Z,6.80
2018-06-18T03:13:14.089Z,6.60
2018-06-18T03:14:14.105Z,8.40
2018-06-18T03:15:14.129Z,7.80
2018-06-18T03:16:14.150Z,6.70
2018-06-18T03:17:14.168Z,5.10
2018-06-18T03:18:14.191Z,5.00
2018-06-18T03:19:14.214Z,5.70
2018-06-18T03:20:14.251Z,4.40
2018-06-18T03:21:14.255Z,3.30
2018-06-18T03:22:14.277Z,4.90
2018-06-18T03:23:14.294Z,5.50
2018-06-18T03:24:14.313Z,5.50
2018-06-18T03:25:14.341Z,5.80
2018-06-18T03:26:14.359Z,8.70
2018-06-18T03:27:14.377Z,6.40
2018-06-18T03:28:14.397Z,6.30
2018-06-18T03:29:14.417Z,6.90
2018-06-18T03:30:14.439Z,8.10
2018-06-18T03:31:14.464Z,5.70
2018-06-18T03:32:14.481Z,5.00
2018-06-18T03:33:14.503Z,7.70
2018-06-18T03:34:14.521Z,5.50
2018-06-18T03:35:14.539Z,6.30
2018-06-18T03:36:14.561Z,7.50
2018-06-18T03:37:14.635Z,4.40
2018-06-18T03:38:14.605Z,6.00
2018-06-18T03:39:14.626Z,6.00
2018-06-18T03:40:14.649Z,4.80
2018-06-18T03:41:14.664Z,5.50
2018-06-18T03:42:14.685Z,5.60
2018-06-18T03:43:14.709Z,6.60
2018-06-18T03:44:14.730Z,4.50
2018-06-18T03:45:14.751Z,5.40
2018-06-18T03:46:14.769Z,5.70
2018-06-18T03:47:14.790Z,5.00
2018-06-18T03:48:14.807Z,7.50
2018-06-18T03:49:14.829Z,5.50
2018-06-18T03:50:14.850Z,6.60
2018-06-18T03:51:14.873Z,5.30
2018-06-18T03:52:14.895Z,5.80
2018-06-18T03:53:14.916Z,5.40
2018-06-18T03:54:14.937Z,5.80
2018-06-18T03:55:14.952Z,5.00
2018-06-18T03:56:15.017Z,4.80
2018-06-18T03:57:14.998Z,4.20
2018-06-18T03:58:15.023Z,5.80
2018-06-18T03:59:15.040Z,5.40
2018-06-18T04:00:15.059Z,5.90
2018-06-18T04:01:15.078Z,5.60
2018-06-18T04:02:15.100Z,3.90
2018-06-18T04:03:15.122Z,4.10
2018-06-18T04:04:15.140Z,5.80
2018-06-18T04:05:15.171Z,3.70
2018-06-18T04:06:15.183Z,2.80
2018-06-18T04:07:15.201Z,4.70
2018-06-18T04:08:15.221Z,4.30
2018-06-18T04:09:15.242Z,3.40
2018-06-18T04:10:15.264Z,4.30
2018-06-18T04:11:15.288Z,4.10
2018-06-18T04:12:15.345Z,4.00
2018-06-18T04:13:15.322Z,6.10
2018-06-18T04:14:15.347Z,3.90
2018-06-18T04:15:15.373Z,4.60
2018-06-18T04:16:15.392Z,5.10
2018-06-18T04:17:15.411Z,4.90
2018-06-18T04:18:15.431Z,5.30
2018-06-18T04:19:15.450Z,5.10
2018-06-18T04:20:15.468Z,6.40
2018-06-18T04:21:15.489Z,5.00
2018-06-18T04:22:15.511Z,5.00
2018-06-18T04:23:15.534Z,4.40
2018-06-18T04:24:15.556Z,3.80
2018-06-18T04:25:15.589Z,4.90
2018-06-18T04:26:15.596Z,3.60
2018-06-18T04:27:15.614Z,5.70
2018-06-18T04:28:15.641Z,5.50
2018-06-18T04:29:15.660Z,4.50
2018-06-18T04:30:16.622Z,6.90
2018-06-18T04:31:15.692Z,4.10
2018-06-18T04:32:15.737Z,4.30
2018-06-18T04:33:15.739Z,4.80
2018-06-18T04:34:15.759Z,4.60
2018-06-18T04:35:15.781Z,5.80
2018-06-18T04:36:15.804Z,6.10
2018-06-18T04:37:15.824Z,3.30
2018-06-18T04:38:15.845Z,5.40
2018-06-18T04:39:15.861Z,3.60
2018-06-18T04:40:15.880Z,3.70
2018-06-18T04:41:15.901Z,3.80
2018-06-18T04:42:15.926Z,5.30
2018-06-18T04:43:15.946Z,3.10
2018-06-18T04:44:15.967Z,4.30
2018-06-18T04:45:15.982Z,4.10
2018-06-18T04:46:16.006Z,4.30
2018-06-18T04:47:16.030Z,5.00
2018-06-18T04:48:16.050Z,4.30
2018-06-18T04:49:16.074Z,4.70
2018-06-18T04:50:16.089Z,3.80
2018-06-18T04:51:16.112Z,3.70
2018-06-18T04:52:16.134Z,3.30
2018-06-18T04:53:16.149Z,3.80
2018-06-18T04:54:16.208Z,5.50
2018-06-18T04:55:16.212Z,4.10
2018-06-18T04:56:16.215Z,6.00
2018-06-18T04:57:16.237Z,3.20
2018-06-18T04:58:16.256Z,5.90
2018-06-18T04:59:16.274Z,5.50
2018-06-18T05:00:16.294Z,3.70
2018-06-18T05:01:16.317Z,5.30
2018-06-18T05:02:16.340Z,5.10
2018-06-18T05:03:16.356Z,3.70
2018-06-18T05:04:16.376Z,2.90
2018-06-18T05:05:16.406Z,5.50
2018-06-18T05:06:16.419Z,10.50
2018-06-18T05:07:16.446Z,5.00
2018-06-18T05:08:16.464Z,3.70
2018-06-18T05:09:16.483Z,6.30
2018-06-18T05:10:16.505Z,6.60
2018-06-18T05:11:16.522Z,7.80
2018-06-18T05:12:16.541Z,6.40
2018-06-18T05:13:16.768Z,5.60
2018-06-18T05:14:16.582Z,7.90
2018-06-18T05:15:16.608Z,4.60
2018-06-18T05:16:16.627Z,6.40
2018-06-18T05:17:16.648Z,5.70
2018-06-18T05:18:16.667Z,7.60
2018-06-18T05:19:16.690Z,7.10
2018-06-18T05:20:16.714Z,9.30
2018-06-18T05:21:16.731Z,3.60
2018-06-18T05:22:16.753Z,5.10
2018-06-18T05:23:16.780Z,6.20
2018-06-18T05:24:16.807Z,3.80
2018-06-18T05:25:16.811Z,5.40
2018-06-18T05:26:16.832Z,5.90
2018-06-18T05:27:16.862Z,5.00
2018-06-18T05:28:16.875Z,5.10
2018-06-18T05:29:16.896Z,6.50
2018-06-18T05:30:16.922Z,5.80
2018-06-18T05:31:16.935Z,5.50
2018-06-18T05:32:16.954Z,5.90
2018-06-18T05:33:16.984Z,5.00
2018-06-18T05:34:16.999Z,4.70
2018-06-18T05:35:17.072Z,8.10
2018-06-18T05:36:17.034Z,6.00
2018-06-18T05:37:17.057Z,6.10
2018-06-18T05:38:17.078Z,5.40
2018-06-18T05:39:17.109Z,5.00
2018-06-18T05:40:17.122Z,6.10
2018-06-18T05:41:17.152Z,5.40
2018-06-18T05:42:17.163Z,7.70
2018-06-18T05:43:17.183Z,6.80
2018-06-18T05:44:17.201Z,7.10
2018-06-18T05:45:17.221Z,6.20
2018-06-18T05:46:17.247Z,6.10
2018-06-18T05:47:17.268Z,6.70
2018-06-18T05:48:17.287Z,5.40
2018-06-18T05:49:17.304Z,4.90
2018-06-18T05:50:17.323Z,6.10
2018-06-18T05:51:17.347Z,5.70
2018-06-18T05:52:17.366Z,3.90
2018-06-18T05:53:17.389Z,5.40
2018-06-18T05:54:17.407Z,5.70
2018-06-18T05:55:17.425Z,5.20
2018-06-18T05:56:17.446Z,4.40
2018-06-18T05:57:17.467Z,5.10
2018-06-18T05:58:17.488Z,7.30
2018-06-18T05:59:17.510Z,6.10
2018-06-18T06:00:17.530Z,6.20
2018-06-18T06:01:17.550Z,7.50
2018-06-18T06:02:17.571Z,5.90
2018-06-18T06:03:17.590Z,6.30
2018-06-18T06:04:17.608Z,6.90
2018-06-18T06:05:17.636Z,7.00
2018-06-18T06:06:17.652Z,7.70
2018-06-18T06:07:17.671Z,7.20
2018-06-18T06:08:17.688Z,5.20
2018-06-18T06:09:17.709Z,6.90
2018-06-18T06:10:17.734Z,5.90
2018-06-18T06:11:17.755Z,7.00
2018-06-18T06:12:17.775Z,5.00
2018-06-18T06:13:17.792Z,6.20
2018-06-18T06:14:17.818Z,7.20
2018-06-18T06:15:17.832Z,5.80
2018-06-18T06:16:17.849Z,6.50
2018-06-18T06:17:17.873Z,5.20
2018-06-18T06:18:17.895Z,5.30
2018-06-18T06:19:17.914Z,4.70
2018-06-18T06:20:17.935Z,5.80
2018-06-18T06:21:17.952Z,4.70
2018-06-18T06:22:17.973Z,4.60
2018-06-18T06:23:17.997Z,6.00
2018-06-18T06:24:18.017Z,7.10
2018-06-18T06:25:18.045Z,5.10
2018-06-18T06:26:18.056Z,5.50
2018-06-18T06:27:18.076Z,4.60
2018-06-18T06:28:18.092Z,5.60
2018-06-18T06:29:18.117Z,5.50
2018-06-18T06:30:18.139Z,5.00
2018-06-18T06:31:18.154Z,5.80
2018-06-18T06:32:18.172Z,4.40
2018-06-18T06:33:18.193Z,5.40
2018-06-18T06:34:18.214Z,5.30
2018-06-18T06:35:18.243Z,5.20
2018-06-18T06:36:18.257Z,6.00
2018-06-18T06:37:18.277Z,5.00
2018-06-18T06:38:18.294Z,5.00
2018-06-18T06:39:18.321Z,5.30
2018-06-18T06:40:18.337Z,5.00
2018-06-18T06:41:18.359Z,7.20
2018-06-18T06:42:18.377Z,5.20
2018-06-18T06:43:18.395Z,5.60
2018-06-18T06:44:18.414Z,4.50
2018-06-18T06:45:18.436Z,5.90
2018-06-18T06:46:18.462Z,5.70
2018-06-18T06:47:18.478Z,5.00
2018-06-18T06:48:18.502Z,5.50
2018-06-18T06:49:18.518Z,6.50
2018-06-18T06:50:18.538Z,5.70
2018-06-18T06:51:18.558Z,4.40
2018-06-18T06:52:18.574Z,5.20
2018-06-18T06:53:18.598Z,5.10
2018-06-18T06:54:18.618Z,5.70
2018-06-18T06:55:18.636Z,5.90
2018-06-18T06:56:18.661Z,7.50
2018-06-18T06:57:18.675Z,4.60
2018-06-18T06:58:18.695Z,5.70
2018-06-18T06:59:18.718Z,4.60
2018-06-18T07:00:18.739Z,5.40
2018-06-18T07:01:18.774Z,5.10
2018-06-18T07:02:18.777Z,5.30
2018-06-18T07:03:18.795Z,4.00
2018-06-18T07:04:18.813Z,5.70
2018-06-18T07:05:18.837Z,5.40
2018-06-18T07:06:18.858Z,6.20
2018-06-18T07:07:18.878Z,5.30
2018-06-18T07:08:18.897Z,4.90
2018-06-18T07:09:18.912Z,5.60
2018-06-18T07:10:18.935Z,4.70
2018-06-18T07:11:18.958Z,6.10
2018-06-18T07:12:18.977Z,5.10
2018-06-18T07:13:19.023Z,4.80
2018-06-18T07:14:19.019Z,5.20
2018-06-18T07:15:19.034Z,5.20
2018-06-18T07:16:19.051Z,5.90
2018-06-18T07:17:19.072Z,6.50
2018-06-18T07:18:19.094Z,7.50
2018-06-18T07:19:19.116Z,4.60
2018-06-18T07:20:19.136Z,5.80
2018-06-18T07:21:19.156Z,4.60
2018-06-18T07:22:19.176Z,5.20
2018-06-18T07:23:19.192Z,5.90
2018-06-18T07:24:19.212Z,8.30
2018-06-18T07:25:19.236Z,8.00
2018-06-18T07:26:19.256Z,7.80
2018-06-18T07:27:19.272Z,10.10
2018-06-18T07:28:19.291Z,8.00
2018-06-18T07:29:19.311Z,6.30
2018-06-18T07:30:19.383Z,9.00
2018-06-18T07:31:19.355Z,6.40
2018-06-18T07:32:19.378Z,6.30
2018-06-18T07:33:19.395Z,7.00
2018-06-18T07:34:19.415Z,5.80
2018-06-18T07:35:19.439Z,5.70
2018-06-18T07:36:19.451Z,7.60
2018-06-18T07:37:19.472Z,6.90
2018-06-18T07:38:19.493Z,7.40
2018-06-18T07:39:19.515Z,6.00
2018-06-18T07:40:19.535Z,7.30
2018-06-18T07:41:19.551Z,5.90
2018-06-18T07:42:19.573Z,7.30
2018-06-18T07:43:19.594Z,6.60
2018-06-18T07:44:19.613Z,6.40
2018-06-18T07:45:19.635Z,6.70
2018-06-18T07:46:19.654Z,6.50
2018-06-18T07:47:19.670Z,7.60
2018-06-18T07:48:19.688Z,7.40
2018-06-18T07:49:19.712Z,10.50
2018-06-18T07:50:19.732Z,9.30
2018-06-18T07:51:19.763Z,7.80
2018-06-18T07:52:19.769Z,9.20
2018-06-18T07:53:19.793Z,6.90
2018-06-18T07:54:19.814Z,7.70
2018-06-18T07:55:19.832Z,9.60
2018-06-18T07:56:21.492Z,8.50
2018-06-18T07:57:19.914Z,8.80
2018-06-18T07:58:19.900Z,8.60
2018-06-18T07:59:19.938Z,9.60
2018-06-18T08:00:19.972Z,10.30
2018-06-18T08:01:19.958Z,9.50
2018-06-18T08:02:19.994Z,8.70
2018-06-18T08:03:20.019Z,14.30
2018-06-18T08:04:20.047Z,12.20
2018-06-18T08:05:20.055Z,13.50
2018-06-18T08:06:20.078Z,18.50
2018-06-18T08:07:20.109Z,11.50
2018-06-18T08:08:20.088Z,11.30
2018-06-18T08:09:20.355Z,10.00
2018-06-18T08:10:20.132Z,15.60
2018-06-18T08:11:20.151Z,10.70
2018-06-18T08:12:20.172Z,11.70
2018-06-18T08:13:20.187Z,14.60
2018-06-18T08:14:20.208Z,16.00
2018-06-18T08:15:20.232Z,14.00
2018-06-18T08:16:20.254Z,9.20
2018-06-18T08:17:20.271Z,10.40
2018-06-18T08:18:20.291Z,9.90
2018-06-18T08:19:20.306Z,10.00
2018-06-18T08:20:20.326Z,10.20
2018-06-18T08:21:20.358Z,8.30
2018-06-18T08:22:20.368Z,7.40
2018-06-18T08:23:21.889Z,7.90
2018-06-18T08:24:20.418Z,7.20
2018-06-18T08:25:20.433Z,9.40
2018-06-18T08:26:20.446Z,9.80
2018-06-18T08:27:20.468Z,13.40
2018-06-18T08:28:20.486Z,9.20
2018-06-18T08:29:20.510Z,7.90
2018-06-18T08:30:20.529Z,9.40
2018-06-18T08:31:20.546Z,8.70
2018-06-18T08:32:20.586Z,7.20
2018-06-18T08:33:20.586Z,9.70
2018-06-18T08:34:20.606Z,5.00
2018-06-18T08:35:20.629Z,6.20
2018-06-18T08:36:20.648Z,7.00
2018-06-18T08:37:21.102Z,5.00
2018-06-18T08:38:20.688Z,8.30
2018-06-18T08:39:20.706Z,7.40
2018-06-18T08:40:20.723Z,7.10
2018-06-18T08:41:20.782Z,6.20
2018-06-18T08:42:20.783Z,6.80
2018-06-18T08:43:20.789Z,5.60
2018-06-18T08:44:20.807Z,8.10
2018-06-18T08:45:20.824Z,6.20
2018-06-18T08:46:20.846Z,6.80
2018-06-18T08:47:20.867Z,6.40
2018-06-18T08:48:21.073Z,4.50
2018-06-18T08:49:21.001Z,7.40
2018-06-18T08:50:20.931Z,6.00
2018-06-18T08:51:20.945Z,5.20
2018-06-18T08:52:20.963Z,6.10
2018-06-18T08:53:20.983Z,5.30
2018-06-18T08:54:21.005Z,5.10
2018-06-18T08:55:21.026Z,6.60
2018-06-18T08:56:21.082Z,19.70
2018-06-18T08:57:21.065Z,8.40
2018-06-18T08:58:21.088Z,10.20
2018-06-18T08:59:21.104Z,15.10
2018-06-18T09:00:21.120Z,35.00
2018-06-18T09:01:21.146Z,16.70
2018-06-18T09:02:21.167Z,10.60
2018-06-18T09:03:21.186Z,12.50
2018-06-18T09:04:21.202Z,13.40
2018-06-18T09:05:21.221Z,6.80
2018-06-18T09:06:21.243Z,6.70
2018-06-18T09:07:21.267Z,8.70
2018-06-18T09:08:21.286Z,6.60
2018-06-18T09:09:21.305Z,6.80
2018-06-18T09:10:21.351Z,7.30
2018-06-18T09:11:21.342Z,5.20
2018-06-18T09:12:21.361Z,5.80
2018-06-18T09:13:21.378Z,6.10
2018-06-18T09:14:21.401Z,5.10
2018-06-18T09:15:21.425Z,4.50
2018-06-18T09:16:21.451Z,6.60
2018-06-18T09:17:21.460Z,3.90
2018-06-18T09:18:21.485Z,5.60
2018-06-18T09:19:21.505Z,5.50
2018-06-18T09:20:21.520Z,5.80
2018-06-18T09:21:21.541Z,5.70
2018-06-18T09:22:21.563Z,4.30
2018-06-18T09:23:21.581Z,5.10
2018-06-18T09:24:21.600Z,4.50
2018-06-18T09:25:21.621Z,5.10
2018-06-18T09:26:21.640Z,4.80
2018-06-18T09:27:21.659Z,4.50
2018-06-18T09:28:21.683Z,5.80
2018-06-18T09:29:21.702Z,5.10
2018-06-18T09:30:21.722Z,5.30
2018-06-18T09:31:21.740Z,5.70
2018-06-18T09:32:21.858Z,3.90
2018-06-18T09:33:21.782Z,5.30
2018-06-18T09:34:21.803Z,4.10
2018-06-18T09:35:21.817Z,4.60
2018-06-18T09:36:21.839Z,8.00
2018-06-18T09:37:21.857Z,4.50
2018-06-18T09:38:21.883Z,5.60
2018-06-18T09:39:21.901Z,4.30
2018-06-18T09:40:21.921Z,5.50
2018-06-18T09:41:21.940Z,6.10
2018-06-18T09:42:21.962Z,7.30
2018-06-18T09:43:21.980Z,4.90
2018-06-18T09:44:21.997Z,3.70
2018-06-18T09:45:22.016Z,3.60
2018-06-18T09:46:22.038Z,4.60
2018-06-18T09:47:22.063Z,5.20
2018-06-18T09:48:22.080Z,3.00
2018-06-18T09:49:22.095Z,5.70
2018-06-18T09:50:22.116Z,4.70
2018-06-18T09:51:22.139Z,3.90
2018-06-18T09:52:22.158Z,5.90
2018-06-18T09:53:22.182Z,5.00
2018-06-18T09:54:22.204Z,7.20
2018-06-18T09:55:22.216Z,5.10
2018-06-18T09:56:22.233Z,5.60
2018-06-18T09:57:22.256Z,3.90
2018-06-18T09:58:22.274Z,8.90
2018-06-18T09:59:22.297Z,6.40
2018-06-18T10:00:22.319Z,8.20
2018-06-18T10:01:22.350Z,8.20
2018-06-18T10:02:22.388Z,6.50
2018-06-18T10:03:22.376Z,7.20
2018-06-18T10:04:22.394Z,7.30
2018-06-18T10:05:22.418Z,8.60
2018-06-18T10:06:22.438Z,6.70
2018-06-18T10:07:22.456Z,7.30
2018-06-18T10:08:22.518Z,6.30
2018-06-18T10:09:22.497Z,6.50
2018-06-18T10:10:22.514Z,8.40
2018-06-18T10:11:22.536Z,10.40
2018-06-18T10:12:22.559Z,11.30
2018-06-18T10:13:22.578Z,8.30
2018-06-18T10:14:22.643Z,12.40
2018-06-18T10:15:22.617Z,11.30
2018-06-18T10:16:22.634Z,8.90
2018-06-18T10:17:22.654Z,10.40
2018-06-18T10:18:22.680Z,8.90
2018-06-18T10:19:22.699Z,9.70
2018-06-18T10:20:22.721Z,8.10
2018-06-18T10:21:22.734Z,9.40
2018-06-18T10:22:22.753Z,8.80
2018-06-18T10:23:22.779Z,10.50
2018-06-18T10:24:22.875Z,8.50
2018-06-18T10:25:22.817Z,8.80
2018-06-18T10:26:22.840Z,7.60
2018-06-18T10:27:22.857Z,7.70
2018-06-18T10:28:22.879Z,14.00
2018-06-18T10:29:22.894Z,22.60
2018-06-18T10:30:22.913Z,18.30
2018-06-18T10:31:22.940Z,13.60
2018-06-18T10:32:22.958Z,18.30
2018-06-18T10:33:22.983Z,15.90
2018-06-18T10:34:22.999Z,20.70
2018-06-18T10:35:23.016Z,16.40
2018-06-18T10:36:23.034Z,12.90
2018-06-18T10:37:23.058Z,18.10
2018-06-18T10:38:23.079Z,13.70
2018-06-18T10:39:23.099Z,12.40
2018-06-18T10:40:23.114Z,9.40
2018-06-18T10:41:23.155Z,9.60
2018-06-18T10:42:23.154Z,10.30
2018-06-18T10:43:23.181Z,15.30
2018-06-18T10:44:23.201Z,9.60
2018-06-18T10:45:23.217Z,10.30
2018-06-18T10:46:23.240Z,13.90
2018-06-18T10:47:23.255Z,9.10
2018-06-18T10:48:23.277Z,10.90
2018-06-18T10:49:23.297Z,11.00
2018-06-18T10:50:23.317Z,7.90
2018-06-18T10:51:23.340Z,12.40
2018-06-18T10:52:23.359Z,10.20
2018-06-18T10:53:23.376Z,8.30
2018-06-18T10:54:23.397Z,8.90
2018-06-18T10:55:23.418Z,9.80
2018-06-18T10:56:23.438Z,20.70
2018-06-18T10:57:23.460Z,16.80
2018-06-18T10:58:23.481Z,17.50
2018-06-18T10:59:23.496Z,14.40
2018-06-18T11:00:23.517Z,16.90
2018-06-18T11:01:23.537Z,17.40
2018-06-18T11:02:23.556Z,16.90
2018-06-18T11:03:23.581Z,12.60
2018-06-18T11:04:23.598Z,13.30
2018-06-18T11:05:23.621Z,14.20
2018-06-18T11:06:23.642Z,16.60
2018-06-18T11:07:23.659Z,11.90
2018-06-18T11:08:23.679Z,13.30
2018-06-18T11:09:23.700Z,13.70
2018-06-18T11:10:23.724Z,12.70
2018-06-18T11:11:23.737Z,11.80
2018-06-18T11:12:23.760Z,19.10
2018-06-18T11:13:23.778Z,11.90
2018-06-18T11:14:23.797Z,12.10
2018-06-18T11:15:23.822Z,11.80
2018-06-18T11:16:24.058Z,13.80
2018-06-18T11:17:24.272Z,12.90
2018-06-18T11:18:23.882Z,13.10
2018-06-18T11:19:23.900Z,10.60
2018-06-18T11:20:23.922Z,11.90
2018-06-18T11:21:23.940Z,12.90
2018-06-18T11:22:23.973Z,10.10
2018-06-18T11:23:23.980Z,12.10
2018-06-18T11:24:24.041Z,12.00
2018-06-18T11:25:24.020Z,11.60
2018-06-18T11:26:24.054Z,10.80
2018-06-18T11:27:24.066Z,10.70
2018-06-18T11:28:24.149Z,10.40
2018-06-18T11:29:24.104Z,11.10
2018-06-18T11:30:24.125Z,14.50
2018-06-18T11:31:24.145Z,11.40
2018-06-18T11:32:24.171Z,10.70
2018-06-18T11:33:24.181Z,9.50
2018-06-18T11:34:24.196Z,8.90
2018-06-18T11:35:24.227Z,12.00
2018-06-18T11:36:24.244Z,11.30
2018-06-18T11:37:24.269Z,11.00
2018-06-18T11:38:24.283Z,10.30
2018-06-18T11:39:24.388Z,11.00
2018-06-18T11:40:24.323Z,9.70
2018-06-18T11:41:24.344Z,10.40
2018-06-18T11:42:24.365Z,13.30
2018-06-18T11:43:24.429Z,8.30
2018-06-18T11:44:24.404Z,10.20
2018-06-18T11:45:24.423Z,11.00
2018-06-18T11:46:24.442Z,8.80
2018-06-18T11:47:24.467Z,9.10
2018-06-18T11:48:24.486Z,10.20
2018-06-18T11:49:24.507Z,8.90
2018-06-18T11:50:24.524Z,11.20
2018-06-18T11:51:24.541Z,11.80
2018-06-18T11:52:24.564Z,11.10
2018-06-18T11:53:24.583Z,9.70
2018-06-18T11:54:24.701Z,8.40
2018-06-18T11:55:24.631Z,9.80
2018-06-18T11:56:24.646Z,9.10
2018-06-18T11:57:24.661Z,8.50
2018-06-18T11:58:24.696Z,8.20
2018-06-18T11:59:24.707Z,8.50
2018-06-18T12:00:24.729Z,9.40
2018-06-18T12:01:24.783Z,9.40
2018-06-18T12:02:24.776Z,10.40
2018-06-18T12:03:24.784Z,9.90
2018-06-18T12:04:24.809Z,10.10
2018-06-18T12:05:24.824Z,9.00
2018-06-18T12:06:24.843Z,14.10
2018-06-18T12:07:24.872Z,13.40
2018-06-18T12:08:24.889Z,13.10
2018-06-18T12:09:24.968Z,13.90
2018-06-18T12:10:24.928Z,15.90
2018-06-18T12:11:24.945Z,18.00
2018-06-18T12:12:24.965Z,15.20
2018-06-18T12:13:24.986Z,15.00
2018-06-18T12:14:25.015Z,14.10
2018-06-18T12:15:25.032Z,20.50
2018-06-18T12:16:25.045Z,21.50
2018-06-18T12:17:25.067Z,24.70
2018-06-18T12:18:25.085Z,23.40
2018-06-18T12:19:25.107Z,23.30
2018-06-18T12:20:25.132Z,25.10
2018-06-18T12:21:25.146Z,28.60
2018-06-18T12:22:25.168Z,25.00
2018-06-18T12:23:25.185Z,24.60
2018-06-18T12:24:25.214Z,34.50
2018-06-18T12:25:25.227Z,32.70
2018-06-18T12:26:25.247Z,28.90
2018-06-18T12:27:25.271Z,32.40
2018-06-18T12:28:25.289Z,32.90
2018-06-18T12:29:25.307Z,32.00
2018-06-18T12:30:25.326Z,32.20
2018-06-18T12:31:25.350Z,32.60
2018-06-18T12:32:25.370Z,30.10
2018-06-18T12:33:25.393Z,29.40
2018-06-18T12:34:25.413Z,32.70
2018-06-18T12:35:25.487Z,27.90
2018-06-18T12:36:25.448Z,30.20
2018-06-18T12:37:25.469Z,27.80
2018-06-18T12:38:25.487Z,27.10
2018-06-18T12:39:25.514Z,30.40
2018-06-18T12:40:25.532Z,24.90
2018-06-18T12:41:25.606Z,27.70
2018-06-18T12:42:25.569Z,26.50
2018-06-18T12:43:25.592Z,25.20
2018-06-18T12:44:25.609Z,26.00
2018-06-18T12:45:25.636Z,23.00
2018-06-18T12:46:25.653Z,27.50
2018-06-18T12:47:25.671Z,25.70
2018-06-18T12:48:25.691Z,25.40
2018-06-18T12:49:25.711Z,26.00
2018-06-18T12:50:25.729Z,26.20
2018-06-18T12:51:25.770Z,25.00
2018-06-18T12:52:25.773Z,21.60
2018-06-18T12:53:25.797Z,22.00
2018-06-18T12:54:25.814Z,25.50
2018-06-18T12:55:25.833Z,23.10
2018-06-18T12:56:25.851Z,22.80
2018-06-18T12:57:25.876Z,23.70
2018-06-18T12:58:25.893Z,23.00
2018-06-18T12:59:25.916Z,20.20
2018-06-18T13:00:25.936Z,24.50
2018-06-18T13:01:25.951Z,21.80
2018-06-18T13:02:25.971Z,18.80
2018-06-18T13:03:26.038Z,19.20
2018-06-18T13:04:26.019Z,20.60
2018-06-18T13:05:26.045Z,20.10
2018-06-18T13:06:26.057Z,20.40
2018-06-18T13:07:26.072Z,22.70
2018-06-18T13:08:26.093Z,18.70
2018-06-18T13:09:26.111Z,21.30
2018-06-18T13:10:26.134Z,19.10
2018-06-18T13:11:26.160Z,17.90
2018-06-18T13:12:26.174Z,20.50
2018-06-18T13:13:26.194Z,22.10
2018-06-18T13:14:26.216Z,21.80
2018-06-18T13:15:26.234Z,19.40
2018-06-18T13:16:26.255Z,17.20
2018-06-18T13:17:26.277Z,16.80
2018-06-18T13:18:26.302Z,19.30
2018-06-18T13:19:26.320Z,17.40
2018-06-18T13:20:26.391Z,16.70
2018-06-18T13:21:26.356Z,18.90
2018-06-18T13:22:26.374Z,23.00
2018-06-18T13:23:26.396Z,18.60
2018-06-18T13:24:26.416Z,17.50
2018-06-18T13:25:26.437Z,17.70
2018-06-18T13:26:26.459Z,17.30
2018-06-18T13:27:26.516Z,17.70
2018-06-18T13:28:26.494Z,20.70
2018-06-18T13:29:26.516Z,17.00
2018-06-18T13:30:26.543Z,17.20
2018-06-18T13:31:26.563Z,19.40
2018-06-18T13:32:26.578Z,20.80
2018-06-18T13:33:26.596Z,16.70
2018-06-18T13:34:26.615Z,19.70
2018-06-18T13:35:26.641Z,14.50
2018-06-18T13:36:26.661Z,15.80
2018-06-18T13:37:26.680Z,16.60
2018-06-18T13:38:26.700Z,17.70
2018-06-18T13:39:26.716Z,16.00
2018-06-18T13:40:26.736Z,16.50
2018-06-18T13:41:26.757Z,15.10
2018-06-18T13:42:26.777Z,17.60
2018-06-18T13:43:26.800Z,14.80
2018-06-18T13:44:26.818Z,13.20
2018-06-18T13:45:26.840Z,16.90
2018-06-18T13:46:26.860Z,16.10
2018-06-18T13:47:26.880Z,14.70
2018-06-18T13:48:26.896Z,14.20
2018-06-18T13:49:26.921Z,16.10
2018-06-18T13:50:26.944Z,17.90
2018-06-18T13:51:26.962Z,14.70
2018-06-18T13:52:27.026Z,15.30
2018-06-18T13:53:26.999Z,16.40
2018-06-18T13:54:27.016Z,16.50
2018-06-18T13:55:27.043Z,14.70
2018-06-18T13:56:27.061Z,15.60
2018-06-18T13:57:35.013Z,13.90
2018-06-18T13:58:27.155Z,15.00